createdAt,value
2022-08-05T00:02:07.689Z,23.98
2022-08-05T00:04:57.456Z,24.00
2022-08-05T00:08:00.783Z,23.49
2022-08-05T00:10:47.647Z,23.59
2022-08-05T00:13:39.667Z,24.04
2022-08-05T00:16:35.352Z,23.50
2022-08-05T00:19:23.223Z,23.62
2022-08-05T00:22:11.362Z,23.58
2022-08-05T00:24:57.900Z,23.50
2022-08-05T00:27:44.672Z,23.72
2022-08-05T00:30:32.130Z,23.24
2022-08-05T00:34:54.082Z,23.71
2022-08-05T00:37:08.994Z,22.88
2022-08-05T00:39:41.377Z,23.33
2022-08-05T00:42:37.328Z,22.79
2022-08-05T00:45:28.220Z,23.28
2022-08-05T00:48:31.201Z,22.85
2022-08-05T00:51:50.596Z,23.10
2022-08-05T00:54:28.177Z,23.39
2022-08-05T00:57:16.989Z,23.55
2022-08-05T01:00:11.122Z,23.31
2022-08-05T01:03:00.072Z,23.46
2022-08-05T01:05:46.300Z,22.83
2022-08-05T01:08:42.914Z,23.32
2022-08-05T01:11:37.227Z,23.20
2022-08-05T01:14:33.501Z,22.77
2022-08-05T01:17:44.018Z,22.40
2022-08-05T01:20:40.204Z,23.41
2022-08-05T01:23:41.880Z,22.56
2022-08-05T01:26:50.300Z,22.67
2022-08-05T01:29:40.791Z,23.15
2022-08-05T01:32:32.455Z,22.22
2022-08-05T01:35:52.061Z,23.21
2022-08-05T01:38:30.779Z,22.60
2022-08-05T01:41:21.021Z,22.07
2022-08-05T01:44:09.846Z,23.01
2022-08-05T01:46:58.258Z,22.54
2022-08-05T01:50:01.514Z,22.12
2022-08-05T01:52:49.782Z,22.49
2022-08-05T01:55:37.542Z,22.99
2022-08-05T01:58:40.839Z,22.54
2022-08-05T02:01:39.852Z,21.93
2022-08-05T02:04:29.995Z,22.36
2022-08-05T02:07:22.086Z,23.07
2022-08-05T02:10:10.307Z,23.15
2022-08-05T02:13:15.754Z,22.77
2022-08-05T02:16:06.303Z,22.48
2022-08-05T02:19:17.899Z,22.86
2022-08-05T02:22:04.692Z,22.45
2022-08-05T02:25:02.684Z,22.74
2022-08-05T02:27:58.443Z,22.85
2022-08-05T02:30:51.855Z,22.55
2022-08-05T02:33:45.072Z,22.63
2022-08-05T02:36:36.213Z,22.93
2022-08-05T02:39:25.219Z,22.79
2022-08-05T02:42:25.729Z,22.44
2022-08-05T02:45:14.999Z,22.05
2022-08-05T02:48:11.739Z,22.34
2022-08-05T02:51:02.969Z,22.26
2022-08-05T02:53:49.328Z,22.11
2022-08-05T02:56:43.601Z,22.40
2022-08-05T02:59:34.647Z,22.34
2022-08-05T03:02:37.587Z,22.27
2022-08-05T03:06:57.244Z,22.07
2022-08-05T03:08:30.947Z,21.73
2022-08-05T03:11:54.822Z,21.93
2022-08-05T03:14:24.905Z,22.18
2022-08-05T03:17:12.121Z,21.63
2022-08-05T03:19:59.390Z,22.07
2022-08-05T03:22:50.198Z,22.00
2022-08-05T03:26:29.962Z,21.77
2022-08-05T03:28:44.947Z,21.79
2022-08-05T03:31:57.219Z,21.50
2022-08-05T03:34:38.668Z,21.58
2022-08-05T03:37:26.392Z,21.78
2022-08-05T03:40:13.182Z,22.02
2022-08-05T03:43:58.276Z,22.17
2022-08-05T03:46:08.242Z,22.17
2022-08-05T03:48:54.851Z,21.94
2022-08-05T03:52:38.733Z,22.06
2022-08-05T03:56:04.946Z,21.08
2022-08-05T03:58:33.407Z,21.55
2022-08-05T04:01:21.951Z,21.27
2022-08-05T04:04:10.822Z,21.58
2022-08-05T04:06:57.843Z,21.48
2022-08-05T04:09:53.182Z,21.71
2022-08-05T04:15:25.349Z,21.87
2022-08-05T04:18:20.243Z,21.58
2022-08-05T04:21:11.044Z,21.96
2022-08-05T04:24:06.526Z,21.84
2022-08-05T04:26:55.556Z,21.99
2022-08-05T04:29:44.429Z,21.92
2022-08-05T04:32:33.438Z,21.99
2022-08-05T04:35:21.461Z,22.30
2022-08-05T04:38:10.010Z,22.08
2022-08-05T04:41:01.245Z,22.39
2022-08-05T04:43:52.957Z,21.95
2022-08-05T04:46:39.326Z,21.14
2022-08-05T04:49:39.027Z,21.80
2022-08-05T04:52:34.277Z,21.89
2022-08-05T04:56:14.947Z,21.82
2022-08-05T04:58:27.285Z,22.48
2022-08-05T05:01:13.687Z,22.46
2022-08-05T05:03:59.729Z,23.11
2022-08-05T05:06:52.010Z,23.11
2022-08-05T05:09:44.435Z,23.03
2022-08-05T05:12:30.841Z,23.49
2022-08-05T05:15:17.595Z,23.60
2022-08-05T05:18:30.982Z,23.60
2022-08-05T05:21:20.306Z,23.62
2022-08-05T05:24:08.906Z,23.91
2022-08-05T05:26:55.284Z,24.28
2022-08-05T05:30:04.958Z,24.20
2022-08-05T05:32:49.272Z,24.42
2022-08-05T05:35:39.605Z,24.63
2022-08-05T05:38:28.610Z,24.77
2022-08-05T05:41:16.383Z,24.94
2022-08-05T05:44:04.956Z,24.83
2022-08-05T05:47:21.262Z,24.98
2022-08-05T05:50:09.413Z,25.21
2022-08-05T05:53:02.951Z,25.34
2022-08-05T05:56:09.306Z,25.27
2022-08-05T05:58:55.542Z,25.20
2022-08-05T06:01:53.848Z,25.71
2022-08-05T06:04:44.365Z,25.79
2022-08-05T06:07:41.774Z,25.73
2022-08-05T06:10:29.427Z,25.64
2022-08-05T06:13:20.385Z,26.16
2022-08-05T06:16:29.205Z,26.33
2022-08-05T06:19:32.980Z,26.54
2022-08-05T06:22:30.620Z,26.40
2022-08-05T06:25:24.926Z,26.69
2022-08-05T06:28:28.570Z,26.76
2022-08-05T06:31:18.212Z,27.13
2022-08-05T06:34:09.114Z,27.02
2022-08-05T06:36:57.602Z,27.04
2022-08-05T06:39:45.211Z,27.49
2022-08-05T06:42:31.337Z,27.40
2022-08-05T06:45:21.230Z,27.87
2022-08-05T06:48:54.593Z,27.86
2022-08-05T06:51:31.334Z,27.71
2022-08-05T06:54:18.979Z,28.11
2022-08-05T06:57:56.935Z,27.71
2022-08-05T07:00:12.528Z,28.32
2022-08-05T07:02:59.139Z,28.57
2022-08-05T07:05:46.332Z,28.50
2022-08-05T07:08:32.763Z,28.61
2022-08-05T07:11:22.144Z,29.14
2022-08-05T07:14:29.631Z,28.44
2022-08-05T07:18:00.226Z,28.44
2022-08-05T07:20:33.506Z,28.89
2022-08-05T07:23:26.465Z,29.07
2022-08-05T07:26:20.951Z,29.19
2022-08-05T07:29:08.940Z,29.69
2022-08-05T07:31:56.586Z,29.33
2022-08-05T07:34:42.920Z,29.66
2022-08-05T07:37:37.667Z,29.63
2022-08-05T07:40:32.883Z,29.52
2022-08-05T07:43:20.727Z,29.87
2022-08-05T07:46:23.486Z,30.07
2022-08-05T07:49:13.739Z,30.20
2022-08-05T07:52:00.399Z,30.01
2022-08-05T07:54:49.065Z,30.35
2022-08-05T07:57:51.360Z,30.60
2022-08-05T08:00:44.023Z,30.98
2022-08-05T08:03:44.249Z,30.67
2022-08-05T08:06:32.617Z,30.57
2022-08-05T08:09:19.769Z,30.32
2022-08-05T08:12:33.323Z,30.85
2022-08-05T08:15:16.042Z,31.20
2022-08-05T08:18:03.557Z,31.65
2022-08-05T08:21:02.033Z,31.67
2022-08-05T08:24:03.100Z,31.41
2022-08-05T08:26:50.896Z,31.66
2022-08-05T08:30:06.484Z,32.02
2022-08-05T08:32:45.294Z,32.01
2022-08-05T08:35:34.984Z,32.07
2022-08-05T08:38:35.875Z,32.62
2022-08-05T08:41:25.992Z,32.07
2022-08-05T08:45:24.221Z,32.43
2022-08-05T08:48:05.918Z,32.65
2022-08-05T08:51:03.700Z,32.65
2022-08-05T08:53:38.141Z,33.10
2022-08-05T08:56:32.427Z,32.93
2022-08-05T08:59:20.899Z,33.01
2022-08-05T09:02:08.704Z,33.13
2022-08-05T09:05:16.331Z,33.52
2022-08-05T09:08:01.436Z,33.77
2022-08-05T09:10:48.015Z,33.77
2022-08-05T09:14:09.702Z,33.29
2022-08-05T09:16:41.428Z,33.63
2022-08-05T09:20:01.712Z,34.14
2022-08-05T09:23:21.875Z,33.41
2022-08-05T09:26:10.462Z,33.84
2022-08-05T09:29:04.901Z,34.40
2022-08-05T09:32:40.331Z,34.40
2022-08-05T09:35:26.838Z,34.65
2022-08-05T09:38:18.307Z,34.57
2022-08-05T09:41:12.968Z,34.46
2022-08-05T09:44:03.658Z,35.35
2022-08-05T09:46:53.604Z,35.30
2022-08-05T09:49:54.678Z,35.65
2022-08-05T09:52:57.614Z,35.37
2022-08-05T09:55:57.611Z,35.25
2022-08-05T09:59:04.101Z,35.32
2022-08-05T10:01:57.678Z,35.75
2022-08-05T10:04:45.240Z,36.13
2022-08-05T10:08:10.767Z,35.74
2022-08-05T10:11:15.994Z,35.26
2022-08-05T10:14:21.078Z,33.78
2022-08-05T10:17:36.946Z,35.22
2022-08-05T10:20:20.613Z,35.89
2022-08-05T10:23:08.880Z,35.97
2022-08-05T10:26:15.040Z,36.06
2022-08-05T10:29:02.590Z,35.94
2022-08-05T10:32:53.760Z,37.01
2022-08-05T10:35:01.084Z,36.82
2022-08-05T10:37:47.745Z,36.97
2022-08-05T10:40:58.112Z,37.12
2022-08-05T10:44:02.691Z,37.34
2022-08-05T10:46:54.783Z,37.67
2022-08-05T10:50:20.316Z,37.77
2022-08-05T10:53:46.759Z,37.93
2022-08-05T10:56:55.918Z,37.70
2022-08-05T11:00:04.466Z,37.76
2022-08-05T11:02:59.088Z,37.59
2022-08-05T11:06:16.210Z,37.91
2022-08-05T11:09:31.864Z,38.04
2022-08-05T11:12:34.841Z,37.97
2022-08-05T11:15:59.156Z,36.81
2022-08-05T11:18:47.018Z,37.58
2022-08-05T11:21:40.963Z,37.80
2022-08-05T11:24:36.244Z,37.93
2022-08-05T11:27:37.000Z,37.91
2022-08-05T11:30:58.233Z,38.10
2022-08-05T11:33:51.658Z,38.84
2022-08-05T11:36:53.021Z,38.09
2022-08-05T11:40:00.593Z,38.61
2022-08-05T11:42:49.911Z,39.06
2022-08-05T11:46:23.491Z,38.97
2022-08-05T11:48:54.773Z,39.16
2022-08-05T11:51:49.354Z,38.54
2022-08-05T11:54:38.211Z,38.50
2022-08-05T11:58:08.477Z,38.86
2022-08-05T12:00:38.293Z,39.18
2022-08-05T12:03:31.565Z,39.03
2022-08-05T12:06:20.933Z,39.33
2022-08-05T12:09:07.660Z,38.16
2022-08-05T12:11:54.269Z,39.22
2022-08-05T12:14:42.400Z,39.45
2022-08-05T12:18:04.186Z,39.86
2022-08-05T12:20:42.250Z,40.05
2022-08-05T12:23:28.202Z,39.37
2022-08-05T12:26:16.094Z,39.63
2022-08-05T12:29:24.855Z,39.63
2022-08-05T12:32:12.370Z,39.86
2022-08-05T12:34:58.810Z,39.23
2022-08-05T12:37:53.371Z,39.27
2022-08-05T12:40:44.177Z,39.62
2022-08-05T12:43:32.257Z,40.10
2022-08-05T12:46:29.381Z,39.89
2022-08-05T12:49:16.181Z,39.96
2022-08-05T12:52:25.237Z,40.26
2022-08-05T12:55:22.602Z,40.27
2022-08-05T12:58:38.494Z,40.77
2022-08-05T13:02:01.081Z,39.49
2022-08-05T13:04:41.725Z,39.08
2022-08-05T13:07:59.302Z,39.33
2022-08-05T13:10:50.537Z,38.17
2022-08-05T13:14:05.323Z,39.02
2022-08-05T13:16:47.565Z,39.50
2022-08-05T13:19:51.722Z,39.15
2022-08-05T13:22:40.853Z,39.47
2022-08-05T13:25:52.192Z,39.72
2022-08-05T13:28:35.724Z,40.15
2022-08-05T13:31:34.124Z,40.72
2022-08-05T13:34:36.584Z,40.68
2022-08-05T13:37:34.615Z,40.92
2022-08-05T13:40:36.941Z,41.22
2022-08-05T13:43:44.561Z,41.00
2022-08-05T13:46:38.020Z,41.18
2022-08-05T13:49:37.585Z,42.02
2022-08-05T13:52:35.233Z,41.81
2022-08-05T13:55:41.017Z,41.42
2022-08-05T13:58:30.866Z,41.48
2022-08-05T14:01:18.023Z,42.20
2022-08-05T14:04:26.702Z,39.43
2022-08-05T14:07:25.850Z,41.17
2022-08-05T14:10:28.411Z,41.20
2022-08-05T14:13:16.130Z,38.97
2022-08-05T14:16:09.326Z,40.43
2022-08-05T14:18:57.770Z,40.67
2022-08-05T14:22:09.998Z,41.25
2022-08-05T14:24:57.087Z,40.65
2022-08-05T14:27:47.564Z,39.09
2022-08-05T14:30:33.909Z,40.09
2022-08-05T14:33:23.536Z,40.87
2022-08-05T14:36:10.401Z,40.72
2022-08-05T14:38:57.223Z,41.09
2022-08-05T14:42:02.338Z,41.53
2022-08-05T14:44:50.189Z,41.78
2022-08-05T14:48:03.045Z,42.06
2022-08-05T14:50:43.153Z,41.97
2022-08-05T14:53:29.886Z,42.24
2022-08-05T14:56:16.478Z,42.60
2022-08-05T14:59:09.016Z,41.90
2022-08-05T15:01:56.414Z,42.58
2022-08-05T15:04:43.836Z,42.28
2022-08-05T15:08:08.712Z,42.31
2022-08-05T15:10:37.350Z,41.92
2022-08-05T15:13:28.557Z,41.89
2022-08-05T15:16:29.678Z,41.99
2022-08-05T15:19:23.900Z,42.34
2022-08-05T15:22:09.981Z,41.74
2022-08-05T15:24:58.393Z,39.61
2022-08-05T15:27:52.101Z,41.33
2022-08-05T15:30:39.284Z,39.41
2022-08-05T15:34:05.291Z,40.74
2022-08-05T15:36:32.110Z,40.74
2022-08-05T15:41:01.279Z,40.86
2022-08-05T15:42:54.609Z,40.92
2022-08-05T15:45:38.321Z,41.23
2022-08-05T15:48:24.879Z,41.24
2022-08-05T15:51:11.237Z,41.23
2022-08-05T15:53:57.482Z,41.35
2022-08-05T15:56:45.472Z,41.81
2022-08-05T15:59:31.879Z,41.29
2022-08-05T16:02:19.699Z,41.45
2022-08-05T16:05:12.241Z,41.84
2022-08-05T16:07:59.163Z,41.49
2022-08-05T16:10:46.698Z,41.32
2022-08-05T16:13:34.912Z,41.29
2022-08-05T16:16:25.349Z,41.08
2022-08-05T16:19:12.070Z,41.49
2022-08-05T16:22:06.683Z,41.52
2022-08-05T16:24:56.972Z,40.99
2022-08-05T16:27:59.952Z,41.17
2022-08-05T16:30:50.369Z,41.11
2022-08-05T16:33:41.773Z,41.31
2022-08-05T16:36:28.025Z,41.41
2022-08-05T16:39:14.869Z,41.17
2022-08-05T16:42:14.484Z,40.46
2022-08-05T16:46:02.921Z,40.80
2022-08-05T16:48:10.229Z,40.56
2022-08-05T16:50:56.868Z,41.20
2022-08-05T16:54:05.687Z,40.99
2022-08-05T16:56:52.150Z,40.95
2022-08-05T17:00:01.270Z,41.25
2022-08-05T17:02:45.479Z,41.43
2022-08-05T17:05:31.977Z,41.52
2022-08-05T17:08:36.503Z,41.86
2022-08-05T17:11:25.324Z,42.22
2022-08-05T17:14:12.954Z,42.34
2022-08-05T17:17:14.247Z,42.46
2022-08-05T17:20:07.733Z,42.64
2022-08-05T17:23:01.005Z,42.66
2022-08-05T17:25:49.583Z,42.87
2022-08-05T17:28:37.489Z,42.77
2022-08-05T17:31:57.375Z,42.46
2022-08-05T17:34:32.073Z,41.87
2022-08-05T17:37:39.539Z,41.12
2022-08-05T17:40:25.792Z,40.48
2022-08-05T17:43:12.336Z,39.89
2022-08-05T17:45:58.592Z,39.32
2022-08-05T17:48:47.818Z,38.98
2022-08-05T17:51:40.163Z,38.50
2022-08-05T17:54:26.867Z,37.97
2022-08-05T17:57:13.221Z,37.93
2022-08-05T18:00:03.394Z,37.61
2022-08-05T18:02:51.172Z,37.58
2022-08-05T18:05:37.977Z,37.17
2022-08-05T18:08:24.268Z,36.79
2022-08-05T18:11:11.203Z,36.73
2022-08-05T18:14:13.396Z,36.62
2022-08-05T18:16:59.757Z,36.24
2022-08-05T18:19:53.983Z,35.60
2022-08-05T18:22:54.753Z,35.36
2022-08-05T18:25:45.158Z,35.28
2022-08-05T18:28:31.699Z,34.81
2022-08-05T18:31:19.610Z,34.37
2022-08-05T18:34:06.383Z,34.19
2022-08-05T18:36:58.848Z,34.11
2022-08-05T18:40:33.648Z,33.72
2022-08-05T18:42:52.125Z,33.84
2022-08-05T18:45:41.677Z,33.42
2022-08-05T18:48:31.247Z,33.19
2022-08-05T18:52:04.500Z,32.86
2022-08-05T18:54:48.815Z,32.91
2022-08-05T18:57:43.209Z,32.64
2022-08-05T19:00:38.230Z,32.47
2022-08-05T19:03:53.285Z,32.53
2022-08-05T19:06:44.672Z,32.36
2022-08-05T19:09:40.125Z,32.23
2022-08-05T19:12:27.218Z,32.17
2022-08-05T19:15:45.100Z,32.20
2022-08-05T19:18:22.615Z,32.07
2022-08-05T19:21:09.582Z,31.86
2022-08-05T19:24:07.683Z,31.89
2022-08-05T19:26:55.816Z,31.95
2022-08-05T19:29:43.637Z,31.73
2022-08-05T19:32:30.371Z,31.39
2022-08-05T19:35:16.641Z,31.29
2022-08-05T19:38:06.187Z,31.10
2022-08-05T19:40:53.481Z,30.98
2022-08-05T19:44:04.112Z,30.78
2022-08-05T19:46:46.294Z,30.57
2022-08-05T19:49:32.802Z,30.46
2022-08-05T19:52:40.405Z,30.22
2022-08-05T19:56:15.272Z,29.65
2022-08-05T19:58:32.237Z,29.79
2022-08-05T20:01:38.126Z,29.97
2022-08-05T20:04:24.551Z,29.99
2022-08-05T20:07:13.315Z,29.98
2022-08-05T20:10:00.887Z,29.95
2022-08-05T20:12:49.058Z,29.74
2022-08-05T20:15:52.050Z,29.52
2022-08-05T20:18:41.979Z,29.41
2022-08-05T20:21:31.970Z,29.13
2022-08-05T20:24:19.691Z,29.00
2022-08-05T20:27:11.284Z,29.02
2022-08-05T20:29:58.899Z,28.98
2022-08-05T20:32:45.803Z,28.98
2022-08-05T20:35:32.669Z,28.78
2022-08-05T20:38:29.532Z,28.79
2022-08-05T20:41:26.855Z,28.71
2022-08-05T20:44:29.870Z,28.27
2022-08-05T20:47:17.539Z,27.84
2022-08-05T20:50:07.529Z,27.80
2022-08-05T20:52:53.492Z,28.02
2022-08-05T20:56:07.359Z,28.31
2022-08-05T20:58:45.825Z,27.72
2022-08-05T21:01:37.368Z,27.34
2022-08-05T21:04:27.113Z,27.96
2022-08-05T21:07:13.963Z,27.59
2022-08-05T21:10:00.289Z,27.61
2022-08-05T21:12:57.792Z,27.30
2022-08-05T21:15:51.098Z,26.93
2022-08-05T21:18:37.909Z,27.04
2022-08-05T21:21:39.848Z,27.04
2022-08-05T21:24:36.562Z,26.89
2022-08-05T21:27:25.146Z,26.55
2022-08-05T21:30:17.638Z,26.39
2022-08-05T21:33:07.250Z,26.75
2022-08-05T21:35:59.167Z,27.12
2022-08-05T21:38:45.483Z,26.45
2022-08-05T21:41:34.283Z,25.61
2022-08-05T21:44:27.015Z,26.77
2022-08-05T21:47:32.711Z,26.67
2022-08-05T21:50:22.159Z,26.79
2022-08-05T21:57:29.848Z,26.67
2022-08-05T22:00:12.876Z,26.63
2022-08-05T22:02:59.817Z,26.09
2022-08-05T22:05:49.167Z,26.01
2022-08-05T22:08:35.895Z,25.95
2022-08-05T22:11:34.432Z,25.61
2022-08-05T22:14:35.707Z,25.75
2022-08-05T22:17:24.353Z,25.63
2022-08-05T22:20:14.699Z,25.78
2022-08-05T22:23:21.498Z,25.88
2022-08-05T22:26:27.027Z,25.89
2022-08-05T22:29:14.455Z,25.80
2022-08-05T22:32:03.162Z,25.61
2022-08-05T22:34:49.706Z,25.67
2022-08-05T22:37:59.308Z,25.42
2022-08-05T22:40:49.917Z,25.56
2022-08-05T22:43:41.395Z,25.26
2022-08-05T22:46:27.597Z,25.27
2022-08-05T22:50:17.431Z,24.30
2022-08-05T22:52:30.637Z,24.15
2022-08-05T22:55:22.039Z,24.17
2022-08-05T22:58:11.602Z,24.74
2022-08-05T23:01:00.692Z,25.06
2022-08-05T23:03:58.776Z,25.08
2022-08-05T23:06:46.010Z,25.10
2022-08-05T23:09:58.428Z,25.20
2022-08-05T23:12:41.112Z,25.18
2022-08-05T23:15:35.400Z,25.05
2022-08-05T23:18:23.093Z,25.06
2022-08-05T23:21:10.298Z,25.07
2022-08-05T23:23:56.688Z,25.06
2022-08-05T23:30:27.108Z,25.18
2022-08-05T23:33:16.461Z,25.16
2022-08-05T23:36:13.628Z,25.22
2022-08-05T23:39:00.523Z,25.32
2022-08-05T23:41:48.691Z,25.41
2022-08-05T23:44:35.134Z,25.11
2022-08-05T23:47:21.381Z,25.19
2022-08-05T23:50:11.539Z,24.91
2022-08-05T23:52:58.910Z,24.62
2022-08-05T23:55:47.173Z,24.98
2022-08-05T23:58:34.966Z,25.03
